sensor_id;sensor_type;location;lat;lon;timestamp;P1;durP1;ratioP1;P2;durP2;ratioP2
8161;SDS011;16778;48.154;15.094;2023-05-14T00:00:41;4.70;;;3.17;;
8161;SDS011;16778;48.154;15.094;2023-05-14T00:03:07;4.23;;;3.30;;
8161;SDS011;16778;48.154;15.094;2023-05-14T00:05:33;6.40;;;4.03;;
8161;SDS011;16778;48.154;15.094;2023-05-14T00:07:59;7.63;;;4.37;;
8161;SDS011;16778;48.154;15.094;2023-05-14T00:10:25;6.10;;;3.80;;
8161;SDS011;16778;48.154;15.094;2023-05-14T00:12:51;7.23;;;3.67;;
8161;SDS011;16778;48.154;15.094;2023-05-14T00:15:17;7.63;;;3.80;;
8161;SDS011;16778;48.154;15.094;2023-05-14T00:17:43;5.27;;;3.33;;
8161;SDS011;16778;48.154;15.094;2023-05-14T00:20:09;7.77;;;3.43;;
8161;SDS011;16778;48.154;15.094;2023-05-14T00:22:36;7.73;;;4.60;;
8161;SDS011;16778;48.154;15.094;2023-05-14T00:25:02;4.53;;;3.53;;
8161;SDS011;16778;48.154;15.094;2023-05-14T00:27:28;5.73;;;4.10;;
8161;SDS011;16778;48.154;15.094;2023-05-14T00:29:53;5.63;;;3.57;;
8161;SDS011;16778;48.154;15.094;2023-05-14T00:32:19;6.10;;;3.40;;
8161;SDS011;16778;48.154;15.094;2023-05-14T00:34:45;8.87;;;4.20;;
8161;SDS011;16778;48.154;15.094;2023-05-14T00:37:11;7.70;;;4.00;;
8161;SDS011;16778;48.154;15.094;2023-05-14T00:39:36;6.13;;;3.27;;
8161;SDS011;16778;48.154;15.094;2023-05-14T00:42:02;8.40;;;3.43;;
8161;SDS011;16778;48.154;15.094;2023-05-14T00:44:28;4.50;;;3.23;;
8161;SDS011;16778;48.154;15.094;2023-05-14T00:46:53;6.23;;;4.10;;
8161;SDS011;16778;48.154;15.094;2023-05-14T00:49:19;4.60;;;3.30;;
8161;SDS011;16778;48.154;15.094;2023-05-14T00:51:45;6.43;;;3.37;;
8161;SDS011;16778;48.154;15.094;2023-05-14T00:54:14;5.47;;;3.70;;
8161;SDS011;16778;48.154;15.094;2023-05-14T00:56:41;6.50;;;3.57;;
8161;SDS011;16778;48.154;15.094;2023-05-14T00:59:08;7.23;;;3.43;;
8161;SDS011;16778;48.154;15.094;2023-05-14T01:01:33;5.50;;;3.63;;
8161;SDS011;16778;48.154;15.094;2023-05-14T01:03:59;10.00;;;4.30;;
8161;SDS011;16778;48.154;15.094;2023-05-14T01:11:47;6.37;;;3.70;;
8161;SDS011;16778;48.154;15.094;2023-05-14T01:14:41;6.47;;;3.53;;
8161;SDS011;16778;48.154;15.094;2023-05-14T01:17:19;5.90;;;3.60;;
8161;SDS011;16778;48.154;15.094;2023-05-14T01:19:47;5.27;;;3.70;;
8161;SDS011;16778;48.154;15.094;2023-05-14T01:22:13;8.73;;;3.93;;
8161;SDS011;16778;48.154;15.094;2023-05-14T01:24:39;7.30;;;3.73;;
8161;SDS011;16778;48.154;15.094;2023-05-14T01:29:59;8.50;;;3.53;;
8161;SDS011;16778;48.154;15.094;2023-05-14T01:32:30;6.33;;;3.47;;
8161;SDS011;16778;48.154;15.094;2023-05-14T01:34:57;7.27;;;4.13;;
8161;SDS011;16778;48.154;15.094;2023-05-14T01:37:23;4.97;;;3.30;;
8161;SDS011;16778;48.154;15.094;2023-05-14T01:39:50;6.47;;;4.00;;
8161;SDS011;16778;48.154;15.094;2023-05-14T01:42:16;6.50;;;3.77;;
8161;SDS011;16778;48.154;15.094;2023-05-14T01:44:41;7.87;;;4.37;;
8161;SDS011;16778;48.154;15.094;2023-05-14T01:47:07;5.93;;;4.27;;
8161;SDS011;16778;48.154;15.094;2023-05-14T01:49:33;6.23;;;4.23;;
8161;SDS011;16778;48.154;15.094;2023-05-14T01:51:58;9.30;;;4.40;;
8161;SDS011;16778;48.154;15.094;2023-05-14T01:54:24;4.83;;;3.37;;
8161;SDS011;16778;48.154;15.094;2023-05-14T01:56:50;5.50;;;3.47;;
8161;SDS011;16778;48.154;15.094;2023-05-14T01:59:15;7.67;;;3.13;;
8161;SDS011;16778;48.154;15.094;2023-05-14T02:01:41;5.47;;;3.30;;
8161;SDS011;16778;48.154;15.094;2023-05-14T02:04:07;5.27;;;3.43;;
8161;SDS011;16778;48.154;15.094;2023-05-14T02:06:32;6.20;;;3.23;;
8161;SDS011;16778;48.154;15.094;2023-05-14T02:08:58;5.00;;;2.87;;
8161;SDS011;16778;48.154;15.094;2023-05-14T02:11:24;5.20;;;3.47;;
8161;SDS011;16778;48.154;15.094;2023-05-14T02:13:50;5.00;;;2.80;;
8161;SDS011;16778;48.154;15.094;2023-05-14T02:16:15;4.90;;;2.80;;
8161;SDS011;16778;48.154;15.094;2023-05-14T02:18:41;6.47;;;3.27;;
8161;SDS011;16778;48.154;15.094;2023-05-14T02:21:07;4.63;;;2.87;;
8161;SDS011;16778;48.154;15.094;2023-05-14T02:23:32;3.87;;;2.83;;
8161;SDS011;16778;48.154;15.094;2023-05-14T02:25:58;4.63;;;2.70;;
8161;SDS011;16778;48.154;15.094;2023-05-14T02:28:23;4.13;;;3.27;;
8161;SDS011;16778;48.154;15.094;2023-05-14T02:30:49;6.40;;;3.27;;
8161;SDS011;16778;48.154;15.094;2023-05-14T02:33:15;3.83;;;3.00;;
8161;SDS011;16778;48.154;15.094;2023-05-14T02:35:40;5.23;;;3.10;;
8161;SDS011;16778;48.154;15.094;2023-05-14T02:38:06;3.90;;;2.40;;
8161;SDS011;16778;48.154;15.094;2023-05-14T02:40:32;3.43;;;2.37;;
8161;SDS011;16778;48.154;15.094;2023-05-14T02:42:58;3.67;;;2.60;;
8161;SDS011;16778;48.154;15.094;2023-05-14T02:45:23;3.63;;;2.60;;
8161;SDS011;16778;48.154;15.094;2023-05-14T02:47:49;4.90;;;3.23;;
8161;SDS011;16778;48.154;15.094;2023-05-14T02:50:15;5.03;;;3.40;;
8161;SDS011;16778;48.154;15.094;2023-05-14T02:52:40;4.37;;;3.10;;
8161;SDS011;16778;48.154;15.094;2023-05-14T02:55:06;4.10;;;3.17;;
8161;SDS011;16778;48.154;15.094;2023-05-14T02:57:32;5.67;;;3.33;;
8161;SDS011;16778;48.154;15.094;2023-05-14T02:59:58;3.80;;;2.87;;
8161;SDS011;16778;48.154;15.094;2023-05-14T03:02:23;9.57;;;2.93;;
8161;SDS011;16778;48.154;15.094;2023-05-14T03:04:49;4.50;;;3.10;;
8161;SDS011;16778;48.154;15.094;2023-05-14T03:07:15;5.97;;;3.30;;
8161;SDS011;16778;48.154;15.094;2023-05-14T03:09:40;5.50;;;2.93;;
8161;SDS011;16778;48.154;15.094;2023-05-14T03:12:06;4.83;;;2.70;;
8161;SDS011;16778;48.154;15.094;2023-05-14T03:14:32;6.00;;;3.87;;
8161;SDS011;16778;48.154;15.094;2023-05-14T03:16:57;5.73;;;3.80;;
8161;SDS011;16778;48.154;15.094;2023-05-14T03:19:23;6.30;;;3.70;;
8161;SDS011;16778;48.154;15.094;2023-05-14T03:21:49;6.60;;;3.83;;
8161;SDS011;16778;48.154;15.094;2023-05-14T03:24:14;5.57;;;3.43;;
8161;SDS011;16778;48.154;15.094;2023-05-14T03:26:40;4.20;;;3.10;;
8161;SDS011;16778;48.154;15.094;2023-05-14T03:29:06;4.90;;;3.27;;
8161;SDS011;16778;48.154;15.094;2023-05-14T03:31:31;5.20;;;3.60;;
8161;SDS011;16778;48.154;15.094;2023-05-14T03:33:57;5.47;;;3.33;;
8161;SDS011;16778;48.154;15.094;2023-05-14T03:36:22;7.40;;;3.77;;
8161;SDS011;16778;48.154;15.094;2023-05-14T03:38:48;6.33;;;3.63;;
8161;SDS011;16778;48.154;15.094;2023-05-14T03:41:14;6.40;;;3.73;;
8161;SDS011;16778;48.154;15.094;2023-05-14T03:43:39;4.00;;;2.87;;
8161;SDS011;16778;48.154;15.094;2023-05-14T03:46:05;3.47;;;2.70;;
8161;SDS011;16778;48.154;15.094;2023-05-14T03:48:31;4.73;;;3.10;;
8161;SDS011;16778;48.154;15.094;2023-05-14T03:50:56;5.13;;;2.90;;
8161;SDS011;16778;48.154;15.094;2023-05-14T03:53:22;5.23;;;3.40;;
8161;SDS011;16778;48.154;15.094;2023-05-14T03:55:47;5.97;;;3.97;;
8161;SDS011;16778;48.154;15.094;2023-05-14T03:58:13;3.70;;;2.70;;
8161;SDS011;16778;48.154;15.094;2023-05-14T04:00:41;3.53;;;2.47;;
8161;SDS011;16778;48.154;15.094;2023-05-14T04:03:07;4.87;;;2.97;;
8161;SDS011;16778;48.154;15.094;2023-05-14T04:05:33;6.37;;;3.97;;
8161;SDS011;16778;48.154;15.094;2023-05-14T04:07:59;9.20;;;4.00;;
8161;SDS011;16778;48.154;15.094;2023-05-14T04:10:25;6.20;;;3.57;;
8161;SDS011;16778;48.154;15.094;2023-05-14T04:12:51;11.30;;;4.60;;
8161;SDS011;16778;48.154;15.094;2023-05-14T04:15:17;7.00;;;3.63;;
8161;SDS011;16778;48.154;15.094;2023-05-14T04:17:42;5.43;;;3.27;;
8161;SDS011;16778;48.154;15.094;2023-05-14T04:20:08;6.40;;;4.13;;
8161;SDS011;16778;48.154;15.094;2023-05-14T04:22:34;6.20;;;3.43;;
8161;SDS011;16778;48.154;15.094;2023-05-14T04:25:00;6.57;;;3.17;;
8161;SDS011;16778;48.154;15.094;2023-05-14T04:27:27;5.87;;;4.10;;
8161;SDS011;16778;48.154;15.094;2023-05-14T04:29:52;6.27;;;3.57;;
8161;SDS011;16778;48.154;15.094;2023-05-14T04:32:18;4.23;;;3.03;;
8161;SDS011;16778;48.154;15.094;2023-05-14T04:34:44;3.97;;;3.13;;
8161;SDS011;16778;48.154;15.094;2023-05-14T04:37:11;4.03;;;2.90;;
8161;SDS011;16778;48.154;15.094;2023-05-14T04:39:37;6.30;;;3.13;;
8161;SDS011;16778;48.154;15.094;2023-05-14T04:42:02;6.47;;;3.50;;
8161;SDS011;16778;48.154;15.094;2023-05-14T04:44:28;5.27;;;3.47;;
8161;SDS011;16778;48.154;15.094;2023-05-14T04:46:54;5.43;;;3.17;;
8161;SDS011;16778;48.154;15.094;2023-05-14T04:49:20;5.27;;;3.63;;
8161;SDS011;16778;48.154;15.094;2023-05-14T04:51:45;4.87;;;3.27;;
8161;SDS011;16778;48.154;15.094;2023-05-14T04:54:12;6.67;;;4.10;;
8161;SDS011;16778;48.154;15.094;2023-05-14T04:56:37;5.17;;;3.43;;
8161;SDS011;16778;48.154;15.094;2023-05-14T04:59:03;4.17;;;2.43;;
8161;SDS011;16778;48.154;15.094;2023-05-14T05:01:29;6.10;;;3.80;;
8161;SDS011;16778;48.154;15.094;2023-05-14T05:03:54;6.77;;;3.63;;
8161;SDS011;16778;48.154;15.094;2023-05-14T05:06:21;6.03;;;3.13;;
8161;SDS011;16778;48.154;15.094;2023-05-14T05:08:47;4.93;;;3.27;;
8161;SDS011;16778;48.154;15.094;2023-05-14T05:11:13;5.83;;;3.33;;
8161;SDS011;16778;48.154;15.094;2023-05-14T05:13:38;7.00;;;3.60;;
8161;SDS011;16778;48.154;15.094;2023-05-14T05:16:04;5.00;;;3.57;;
8161;SDS011;16778;48.154;15.094;2023-05-14T05:18:30;8.60;;;3.83;;
8161;SDS011;16778;48.154;15.094;2023-05-14T05:20:55;4.07;;;3.67;;
8161;SDS011;16778;48.154;15.094;2023-05-14T05:23:21;6.90;;;3.43;;
8161;SDS011;16778;48.154;15.094;2023-05-14T05:25:47;5.93;;;4.20;;
8161;SDS011;16778;48.154;15.094;2023-05-14T05:28:14;6.93;;;3.60;;
8161;SDS011;16778;48.154;15.094;2023-05-14T05:30:40;5.20;;;3.40;;
8161;SDS011;16778;48.154;15.094;2023-05-14T05:33:05;5.23;;;3.10;;
8161;SDS011;16778;48.154;15.094;2023-05-14T05:35:31;6.10;;;3.13;;
8161;SDS011;16778;48.154;15.094;2023-05-14T05:37:57;7.27;;;3.40;;
8161;SDS011;16778;48.154;15.094;2023-05-14T05:40:23;3.93;;;2.70;;
8161;SDS011;16778;48.154;15.094;2023-05-14T05:42:49;6.83;;;3.80;;
8161;SDS011;16778;48.154;15.094;2023-05-14T05:45:15;5.03;;;3.47;;
8161;SDS011;16778;48.154;15.094;2023-05-14T05:47:40;5.13;;;3.10;;
8161;SDS011;16778;48.154;15.094;2023-05-14T05:50:06;3.13;;;2.60;;
8161;SDS011;16778;48.154;15.094;2023-05-14T05:52:32;6.27;;;3.70;;
8161;SDS011;16778;48.154;15.094;2023-05-14T05:54:58;5.43;;;3.87;;
8161;SDS011;16778;48.154;15.094;2023-05-14T05:57:24;4.23;;;2.93;;
8161;SDS011;16778;48.154;15.094;2023-05-14T05:59:51;5.03;;;3.33;;
8161;SDS011;16778;48.154;15.094;2023-05-14T06:02:17;6.97;;;3.93;;
8161;SDS011;16778;48.154;15.094;2023-05-14T06:04:43;3.63;;;2.70;;
8161;SDS011;16778;48.154;15.094;2023-05-14T06:07:09;6.27;;;3.53;;
8161;SDS011;16778;48.154;15.094;2023-05-14T06:09:34;4.90;;;3.60;;
8161;SDS011;16778;48.154;15.094;2023-05-14T06:12:00;4.80;;;3.20;;
8161;SDS011;16778;48.154;15.094;2023-05-14T06:14:26;5.37;;;3.67;;
8161;SDS011;16778;48.154;15.094;2023-05-14T06:16:51;6.30;;;3.83;;
8161;SDS011;16778;48.154;15.094;2023-05-14T06:19:17;5.37;;;3.57;;
8161;SDS011;16778;48.154;15.094;2023-05-14T06:21:42;4.20;;;3.17;;
8161;SDS011;16778;48.154;15.094;2023-05-14T06:24:08;6.83;;;3.80;;
8161;SDS011;16778;48.154;15.094;2023-05-14T06:26:34;6.87;;;3.43;;
8161;SDS011;16778;48.154;15.094;2023-05-14T06:29:00;6.63;;;3.97;;
8161;SDS011;16778;48.154;15.094;2023-05-14T06:31:25;6.50;;;3.90;;
8161;SDS011;16778;48.154;15.094;2023-05-14T06:33:51;6.23;;;3.17;;
8161;SDS011;16778;48.154;15.094;2023-05-14T06:36:17;7.53;;;4.53;;
8161;SDS011;16778;48.154;15.094;2023-05-14T06:38:42;5.70;;;3.60;;
8161;SDS011;16778;48.154;15.094;2023-05-14T06:41:08;5.90;;;3.27;;
8161;SDS011;16778;48.154;15.094;2023-05-14T06:43:33;5.37;;;3.83;;
8161;SDS011;16778;48.154;15.094;2023-05-14T06:45:59;4.57;;;3.23;;
8161;SDS011;16778;48.154;15.094;2023-05-14T06:48:25;7.13;;;4.20;;
8161;SDS011;16778;48.154;15.094;2023-05-14T06:50:53;5.00;;;3.43;;
8161;SDS011;16778;48.154;15.094;2023-05-14T06:53:19;5.10;;;3.77;;
8161;SDS011;16778;48.154;15.094;2023-05-14T06:55:46;5.17;;;2.97;;
8161;SDS011;16778;48.154;15.094;2023-05-14T06:58:12;5.13;;;3.77;;
8161;SDS011;16778;48.154;15.094;2023-05-14T07:00:38;8.47;;;3.60;;
8161;SDS011;16778;48.154;15.094;2023-05-14T07:03:04;5.53;;;3.80;;
8161;SDS011;16778;48.154;15.094;2023-05-14T07:05:30;6.97;;;4.17;;
8161;SDS011;16778;48.154;15.094;2023-05-14T07:07:55;5.07;;;3.73;;
8161;SDS011;16778;48.154;15.094;2023-05-14T07:10:21;3.73;;;2.83;;
8161;SDS011;16778;48.154;15.094;2023-05-14T07:12:47;5.97;;;3.63;;
8161;SDS011;16778;48.154;15.094;2023-05-14T07:15:13;5.17;;;3.27;;
8161;SDS011;16778;48.154;15.094;2023-05-14T07:17:39;4.73;;;2.87;;
8161;SDS011;16778;48.154;15.094;2023-05-14T07:20:05;5.53;;;3.57;;
8161;SDS011;16778;48.154;15.094;2023-05-14T07:22:31;5.53;;;3.70;;
8161;SDS011;16778;48.154;15.094;2023-05-14T07:24:56;5.37;;;3.50;;
8161;SDS011;16778;48.154;15.094;2023-05-14T07:27:22;5.30;;;3.53;;
8161;SDS011;16778;48.154;15.094;2023-05-14T07:29:48;4.40;;;2.93;;
8161;SDS011;16778;48.154;15.094;2023-05-14T07:32:14;4.53;;;3.07;;
8161;SDS011;16778;48.154;15.094;2023-05-14T07:34:40;5.73;;;3.63;;
8161;SDS011;16778;48.154;15.094;2023-05-14T07:37:06;4.90;;;2.70;;
8161;SDS011;16778;48.154;15.094;2023-05-14T07:39:31;5.77;;;3.43;;
8161;SDS011;16778;48.154;15.094;2023-05-14T07:41:57;4.00;;;3.17;;
8161;SDS011;16778;48.154;15.094;2023-05-14T07:44:24;4.77;;;3.40;;
8161;SDS011;16778;48.154;15.094;2023-05-14T07:46:50;4.67;;;3.33;;
8161;SDS011;16778;48.154;15.094;2023-05-14T07:49:15;4.63;;;3.40;;
8161;SDS011;16778;48.154;15.094;2023-05-14T07:51:41;5.47;;;3.57;;
8161;SDS011;16778;48.154;15.094;2023-05-14T07:54:07;6.03;;;3.20;;
8161;SDS011;16778;48.154;15.094;2023-05-14T07:56:32;4.67;;;2.80;;
8161;SDS011;16778;48.154;15.094;2023-05-14T07:58:58;4.07;;;3.00;;
8161;SDS011;16778;48.154;15.094;2023-05-14T08:01:24;2.77;;;2.40;;
8161;SDS011;16778;48.154;15.094;2023-05-14T08:03:50;3.60;;;2.80;;
8161;SDS011;16778;48.154;15.094;2023-05-14T08:06:16;3.67;;;2.70;;
8161;SDS011;16778;48.154;15.094;2023-05-14T08:08:41;5.67;;;2.83;;
8161;SDS011;16778;48.154;15.094;2023-05-14T08:11:07;4.27;;;2.90;;
8161;SDS011;16778;48.154;15.094;2023-05-14T08:13:33;3.47;;;2.30;;
8161;SDS011;16778;48.154;15.094;2023-05-14T08:15:58;4.23;;;2.87;;
8161;SDS011;16778;48.154;15.094;2023-05-14T08:18:24;4.13;;;2.50;;
8161;SDS011;16778;48.154;15.094;2023-05-14T08:20:50;4.67;;;2.57;;
8161;SDS011;16778;48.154;15.094;2023-05-14T08:23:16;3.47;;;2.50;;
8161;SDS011;16778;48.154;15.094;2023-05-14T08:25:41;4.60;;;2.83;;
8161;SDS011;16778;48.154;15.094;2023-05-14T08:28:07;4.13;;;3.00;;
8161;SDS011;16778;48.154;15.094;2023-05-14T08:30:32;4.13;;;3.10;;
8161;SDS011;16778;48.154;15.094;2023-05-14T08:32:58;5.43;;;2.80;;
8161;SDS011;16778;48.154;15.094;2023-05-14T08:35:24;4.53;;;3.03;;
8161;SDS011;16778;48.154;15.094;2023-05-14T08:37:50;5.80;;;3.50;;
8161;SDS011;16778;48.154;15.094;2023-05-14T08:40:16;4.77;;;3.63;;
8161;SDS011;16778;48.154;15.094;2023-05-14T08:42:42;4.70;;;3.30;;
8161;SDS011;16778;48.154;15.094;2023-05-14T08:47:47;3.13;;;2.27;;
8161;SDS011;16778;48.154;15.094;2023-05-14T08:50:14;5.33;;;3.43;;
8161;SDS011;16778;48.154;15.094;2023-05-14T08:52:40;4.97;;;3.60;;
8161;SDS011;16778;48.154;15.094;2023-05-14T08:55:06;5.93;;;4.33;;
8161;SDS011;16778;48.154;15.094;2023-05-14T08:57:32;7.10;;;4.07;;
8161;SDS011;16778;48.154;15.094;2023-05-14T08:59:58;5.60;;;4.00;;
8161;SDS011;16778;48.154;15.094;2023-05-14T09:02:27;5.80;;;3.47;;
8161;SDS011;16778;48.154;15.094;2023-05-14T09:04:55;5.87;;;4.50;;
8161;SDS011;16778;48.154;15.094;2023-05-14T09:07:24;4.90;;;3.60;;
8161;SDS011;16778;48.154;15.094;2023-05-14T09:09:51;5.60;;;3.53;;
8161;SDS011;16778;48.154;15.094;2023-05-14T09:12:17;6.87;;;4.00;;
8161;SDS011;16778;48.154;15.094;2023-05-14T09:14:43;4.43;;;3.67;;
8161;SDS011;16778;48.154;15.094;2023-05-14T09:17:09;5.93;;;4.10;;
8161;SDS011;16778;48.154;15.094;2023-05-14T09:19:39;4.47;;;3.60;;
8161;SDS011;16778;48.154;15.094;2023-05-14T09:22:12;5.07;;;3.73;;
8161;SDS011;16778;48.154;15.094;2023-05-14T09:24:39;3.70;;;3.30;;
8161;SDS011;16778;48.154;15.094;2023-05-14T09:27:05;3.63;;;3.00;;
8161;SDS011;16778;48.154;15.094;2023-05-14T09:29:31;3.70;;;2.70;;
8161;SDS011;16778;48.154;15.094;2023-05-14T09:31:57;4.93;;;2.93;;
8161;SDS011;16778;48.154;15.094;2023-05-14T09:34:28;3.83;;;2.87;;
8161;SDS011;16778;48.154;15.094;2023-05-14T09:37:04;4.03;;;2.80;;
8161;SDS011;16778;48.154;15.094;2023-05-14T09:39:31;3.20;;;2.63;;
8161;SDS011;16778;48.154;15.094;2023-05-14T09:41:58;4.67;;;3.30;;
8161;SDS011;16778;48.154;15.094;2023-05-14T09:44:23;4.60;;;2.87;;
8161;SDS011;16778;48.154;15.094;2023-05-14T09:46:50;3.60;;;2.83;;
8161;SDS011;16778;48.154;15.094;2023-05-14T09:49:16;4.53;;;2.77;;
8161;SDS011;16778;48.154;15.094;2023-05-14T09:51:42;3.27;;;2.33;;
8161;SDS011;16778;48.154;15.094;2023-05-14T09:54:08;2.33;;;1.93;;
8161;SDS011;16778;48.154;15.094;2023-05-14T09:56:34;2.77;;;2.37;;
8161;SDS011;16778;48.154;15.094;2023-05-14T09:59:01;5.20;;;3.40;;
8161;SDS011;16778;48.154;15.094;2023-05-14T10:01:28;3.60;;;2.50;;
8161;SDS011;16778;48.154;15.094;2023-05-14T10:03:54;3.43;;;2.33;;
8161;SDS011;16778;48.154;15.094;2023-05-14T10:06:27;2.73;;;2.47;;
8161;SDS011;16778;48.154;15.094;2023-05-14T10:08:58;2.87;;;2.10;;
8161;SDS011;16778;48.154;15.094;2023-05-14T10:11:27;1.93;;;1.73;;
8161;SDS011;16778;48.154;15.094;2023-05-14T10:13:57;2.23;;;2.03;;
8161;SDS011;16778;48.154;15.094;2023-05-14T10:16:27;2.43;;;1.80;;
8161;SDS011;16778;48.154;15.094;2023-05-14T10:18:55;2.47;;;1.60;;
8161;SDS011;16778;48.154;15.094;2023-05-14T10:21:25;2.20;;;1.57;;
8161;SDS011;16778;48.154;15.094;2023-05-14T10:23:52;2.23;;;1.70;;
8161;SDS011;16778;48.154;15.094;2023-05-14T10:26:18;2.27;;;1.60;;
8161;SDS011;16778;48.154;15.094;2023-05-14T10:28:45;2.47;;;1.63;;
8161;SDS011;16778;48.154;15.094;2023-05-14T10:31:11;1.70;;;1.40;;
8161;SDS011;16778;48.154;15.094;2023-05-14T10:33:46;1.97;;;1.40;;
8161;SDS011;16778;48.154;15.094;2023-05-14T10:36:14;2.77;;;1.40;;
8161;SDS011;16778;48.154;15.094;2023-05-14T10:38:43;1.27;;;1.00;;
8161;SDS011;16778;48.154;15.094;2023-05-14T10:41:09;2.03;;;1.30;;
8161;SDS011;16778;48.154;15.094;2023-05-14T10:43:37;2.17;;;1.33;;
8161;SDS011;16778;48.154;15.094;2023-05-14T10:46:06;1.57;;;1.37;;
8161;SDS011;16778;48.154;15.094;2023-05-14T10:48:32;2.83;;;1.50;;
8161;SDS011;16778;48.154;15.094;2023-05-14T10:50:59;1.63;;;1.50;;
8161;SDS011;16778;48.154;15.094;2023-05-14T10:53:30;1.47;;;1.27;;
8161;SDS011;16778;48.154;15.094;2023-05-14T10:56:09;2.47;;;1.37;;
8161;SDS011;16778;48.154;15.094;2023-05-14T10:58:37;1.07;;;0.90;;
8161;SDS011;16778;48.154;15.094;2023-05-14T11:01:07;3.70;;;1.10;;
8161;SDS011;16778;48.154;15.094;2023-05-14T11:03:41;2.07;;;1.30;;
8161;SDS011;16778;48.154;15.094;2023-05-14T11:06:09;2.90;;;1.83;;
8161;SDS011;16778;48.154;15.094;2023-05-14T11:08:37;1.20;;;1.00;;
8161;SDS011;16778;48.154;15.094;2023-05-14T11:11:03;2.03;;;1.30;;
8161;SDS011;16778;48.154;15.094;2023-05-14T11:13:30;2.20;;;1.47;;
8161;SDS011;16778;48.154;15.094;2023-05-14T11:15:56;1.67;;;1.10;;
8161;SDS011;16778;48.154;15.094;2023-05-14T11:18:26;2.23;;;1.43;;
8161;SDS011;16778;48.154;15.094;2023-05-14T11:20:56;0.97;;;0.93;;
8161;SDS011;16778;48.154;15.094;2023-05-14T11:23:23;1.40;;;1.03;;
8161;SDS011;16778;48.154;15.094;2023-05-14T11:25:51;1.20;;;1.10;;
8161;SDS011;16778;48.154;15.094;2023-05-14T11:28:24;1.30;;;0.77;;
8161;SDS011;16778;48.154;15.094;2023-05-14T11:30:51;1.37;;;1.00;;
8161;SDS011;16778;48.154;15.094;2023-05-14T11:33:17;1.17;;;1.03;;
8161;SDS011;16778;48.154;15.094;2023-05-14T11:35:44;1.20;;;0.90;;
8161;SDS011;16778;48.154;15.094;2023-05-14T11:38:17;1.10;;;0.97;;
8161;SDS011;16778;48.154;15.094;2023-05-14T11:40:53;1.37;;;0.70;;
8161;SDS011;16778;48.154;15.094;2023-05-14T11:43:20;1.10;;;1.00;;
8161;SDS011;16778;48.154;15.094;2023-05-14T11:45:51;1.53;;;1.10;;
8161;SDS011;16778;48.154;15.094;2023-05-14T11:48:18;1.67;;;0.80;;
8161;SDS011;16778;48.154;15.094;2023-05-14T11:50:47;3.20;;;1.00;;
8161;SDS011;16778;48.154;15.094;2023-05-14T11:53:26;3.53;;;1.90;;
8161;SDS011;16778;48.154;15.094;2023-05-14T11:55:53;1.90;;;1.13;;
8161;SDS011;16778;48.154;15.094;2023-05-14T11:58:19;1.30;;;0.97;;
8161;SDS011;16778;48.154;15.094;2023-05-14T12:00:48;2.00;;;1.27;;
8161;SDS011;16778;48.154;15.094;2023-05-14T12:03:14;1.97;;;0.80;;
8161;SDS011;16778;48.154;15.094;2023-05-14T12:05:53;3.60;;;1.17;;
8161;SDS011;16778;48.154;15.094;2023-05-14T12:08:26;1.93;;;1.20;;
8161;SDS011;16778;48.154;15.094;2023-05-14T12:10:53;1.17;;;1.00;;
8161;SDS011;16778;48.154;15.094;2023-05-14T12:13:19;1.60;;;1.03;;
8161;SDS011;16778;48.154;15.094;2023-05-14T12:15:46;1.53;;;1.03;;
8161;SDS011;16778;48.154;15.094;2023-05-14T12:18:12;0.80;;;0.73;;
8161;SDS011;16778;48.154;15.094;2023-05-14T12:20:38;1.27;;;0.63;;
8161;SDS011;16778;48.154;15.094;2023-05-14T12:23:08;1.20;;;0.80;;
8161;SDS011;16778;48.154;15.094;2023-05-14T12:25:34;0.97;;;0.80;;
8161;SDS011;16778;48.154;15.094;2023-05-14T12:28:05;0.80;;;0.70;;
8161;SDS011;16778;48.154;15.094;2023-05-14T12:30:38;0.60;;;0.60;;
8161;SDS011;16778;48.154;15.094;2023-05-14T12:33:05;0.73;;;0.73;;
8161;SDS011;16778;48.154;15.094;2023-05-14T12:35:31;0.97;;;0.87;;
8161;SDS011;16778;48.154;15.094;2023-05-14T12:37:56;1.10;;;0.80;;
8161;SDS011;16778;48.154;15.094;2023-05-14T12:40:22;1.10;;;0.83;;
8161;SDS011;16778;48.154;15.094;2023-05-14T12:42:48;0.50;;;0.50;;
8161;SDS011;16778;48.154;15.094;2023-05-14T12:45:13;1.03;;;0.73;;
8161;SDS011;16778;48.154;15.094;2023-05-14T12:47:39;0.57;;;0.57;;
8161;SDS011;16778;48.154;15.094;2023-05-14T12:50:05;0.53;;;0.50;;
8161;SDS011;16778;48.154;15.094;2023-05-14T12:52:31;0.40;;;0.40;;
8161;SDS011;16778;48.154;15.094;2023-05-14T12:54:57;0.67;;;0.60;;
8161;SDS011;16778;48.154;15.094;2023-05-14T12:57:22;1.27;;;0.70;;
8161;SDS011;16778;48.154;15.094;2023-05-14T12:59:48;0.93;;;0.60;;
8161;SDS011;16778;48.154;15.094;2023-05-14T13:02:13;0.70;;;0.70;;
8161;SDS011;16778;48.154;15.094;2023-05-14T13:04:40;0.57;;;0.53;;
8161;SDS011;16778;48.154;15.094;2023-05-14T13:07:06;0.50;;;0.50;;
8161;SDS011;16778;48.154;15.094;2023-05-14T13:09:32;1.13;;;0.53;;
8161;SDS011;16778;48.154;15.094;2023-05-14T13:11:58;0.60;;;0.60;;
8161;SDS011;16778;48.154;15.094;2023-05-14T13:14:24;0.50;;;0.50;;
8161;SDS011;16778;48.154;15.094;2023-05-14T13:16:49;4.37;;;0.73;;
8161;SDS011;16778;48.154;15.094;2023-05-14T13:19:15;0.63;;;0.63;;
8161;SDS011;16778;48.154;15.094;2023-05-14T13:21:40;0.80;;;0.70;;
8161;SDS011;16778;48.154;15.094;2023-05-14T13:24:07;1.10;;;0.53;;
8161;SDS011;16778;48.154;15.094;2023-05-14T13:26:34;0.97;;;0.70;;
8161;SDS011;16778;48.154;15.094;2023-05-14T13:29:01;1.03;;;0.77;;
8161;SDS011;16778;48.154;15.094;2023-05-14T13:31:26;2.90;;;1.20;;
8161;SDS011;16778;48.154;15.094;2023-05-14T13:33:52;3.00;;;1.10;;
8161;SDS011;16778;48.154;15.094;2023-05-14T13:36:18;1.17;;;0.90;;
8161;SDS011;16778;48.154;15.094;2023-05-14T13:38:43;0.70;;;0.70;;
8161;SDS011;16778;48.154;15.094;2023-05-14T13:41:10;0.83;;;0.70;;
8161;SDS011;16778;48.154;15.094;2023-05-14T13:43:36;0.73;;;0.70;;
8161;SDS011;16778;48.154;15.094;2023-05-14T13:46:03;1.20;;;0.87;;
8161;SDS011;16778;48.154;15.094;2023-05-14T13:48:29;1.10;;;0.70;;
8161;SDS011;16778;48.154;15.094;2023-05-14T13:50:55;0.73;;;0.73;;
8161;SDS011;16778;48.154;15.094;2023-05-14T13:53:21;1.03;;;0.90;;
8161;SDS011;16778;48.154;15.094;2023-05-14T13:55:47;0.80;;;0.70;;
8161;SDS011;16778;48.154;15.094;2023-05-14T13:58:13;2.27;;;0.80;;
8161;SDS011;16778;48.154;15.094;2023-05-14T14:00:39;3.30;;;0.60;;
8161;SDS011;16778;48.154;15.094;2023-05-14T14:03:05;0.60;;;0.50;;
8161;SDS011;16778;48.154;15.094;2023-05-14T14:05:31;0.50;;;0.50;;
8161;SDS011;16778;48.154;15.094;2023-05-14T14:07:57;0.90;;;0.73;;
8161;SDS011;16778;48.154;15.094;2023-05-14T14:10:23;0.60;;;0.43;;
8161;SDS011;16778;48.154;15.094;2023-05-14T14:12:48;0.83;;;0.50;;
8161;SDS011;16778;48.154;15.094;2023-05-14T14:15:14;1.57;;;0.70;;
8161;SDS011;16778;48.154;15.094;2023-05-14T14:17:40;0.73;;;0.70;;
8161;SDS011;16778;48.154;15.094;2023-05-14T14:20:09;3.73;;;1.50;;
8161;SDS011;16778;48.154;15.094;2023-05-14T14:22:35;3.07;;;1.53;;
8161;SDS011;16778;48.154;15.094;2023-05-14T14:25:01;2.50;;;1.70;;
8161;SDS011;16778;48.154;15.094;2023-05-14T14:27:27;1.40;;;0.77;;
8161;SDS011;16778;48.154;15.094;2023-05-14T14:29:56;1.37;;;0.90;;
8161;SDS011;16778;48.154;15.094;2023-05-14T14:32:21;1.23;;;1.13;;
8161;SDS011;16778;48.154;15.094;2023-05-14T14:34:47;0.70;;;0.70;;
8161;SDS011;16778;48.154;15.094;2023-05-14T14:37:12;0.73;;;0.70;;
8161;SDS011;16778;48.154;15.094;2023-05-14T14:39:38;2.93;;;1.00;;
8161;SDS011;16778;48.154;15.094;2023-05-14T14:42:04;0.73;;;0.70;;
8161;SDS011;16778;48.154;15.094;2023-05-14T14:44:30;1.10;;;0.77;;
8161;SDS011;16778;48.154;15.094;2023-05-14T14:46:56;0.67;;;0.67;;
8161;SDS011;16778;48.154;15.094;2023-05-14T14:49:22;0.50;;;0.50;;
8161;SDS011;16778;48.154;15.094;2023-05-14T14:51:47;0.70;;;0.70;;
8161;SDS011;16778;48.154;15.094;2023-05-14T14:54:13;3.07;;;1.10;;